Time;durP1;ratioP1;P1;durP2;ratioP2;P2;SDS_P1;SDS_P2;PMS_P1;PMS_P2;Temp;Humidity;BMP_temperature;BMP_pressure;BME280_temperature;BME280_humidity;BME280_pressure;Samples;Min_cycle;Max_cycle;Signal;HPM_P1;HPM_P2
2021/10/03 00:01:57;;;;;;;4.62;2.50;;;;;;;19.32;49.36;102517.33;1585798;90;21103;-47
2021/10/03 00:04:28;;;;;;;4.30;1.85;;;;;;;19.32;49.31;102519.97;1585466;90;21090;-47
2021/10/03 00:06:55;;;;;;;2.98;1.82;;;;;;;19.31;49.29;102522.63;1585641;90;21054;-50
2021/10/03 00:09:21;;;;;;;5.22;2.15;;;;;;;19.30;49.23;102521.79;1585601;90;21607;-50
2021/10/03 00:11:49;;;;;;;3.95;2.20;;;;;;;19.31;49.29;102526.14;1585627;90;21046;-50
2021/10/03 00:14:17;;;;;;;3.58;1.98;;;;;;;19.33;49.40;102522.16;1585805;90;21115;-48
2021/10/03 00:16:46;;;;;;;3.47;2.15;;;;;;;19.33;49.45;102523.03;1585349;90;21074;-50
2021/10/03 00:19:14;;;;;;;5.53;2.00;;;;;;;19.36;49.08;102521.64;1594592;88;21084;-50
2021/10/03 00:21:41;;;;;;;3.58;2.08;;;;;;;19.36;48.79;102519.00;1637385;87;21022;-50
2021/10/03 00:24:08;;;;;;;6.92;1.80;;;;;;;19.35;48.40;102518.57;1637274;88;21058;-50
2021/10/03 00:26:34;;;;;;;2.77;1.72;;;;;;;19.35;48.19;102519.89;1659390;85;21554;-50
2021/10/03 00:29:02;;;;;;;4.65;1.98;;;;;;;19.36;47.97;102515.04;1694613;85;21035;-48
2021/10/03 00:31:30;;;;;;;8.30;2.02;;;;;;;19.35;47.54;102509.81;1659294;86;21055;-49
2021/10/03 00:33:56;;;;;;;3.33;2.35;;;;;;;19.33;47.34;102513.80;1730376;83;21030;-48
2021/10/03 00:36:23;;;;;;;5.97;1.98;;;;;;;19.29;47.05;102509.94;1709599;83;21127;-50
2021/10/03 00:38:49;;;;;;;3.37;1.80;;;;;;;19.26;46.63;102512.23;1710832;83;20994;-50
2021/10/03 00:41:16;;;;;;;6.97;2.25;;;;;;;19.23;46.37;102513.63;1710996;83;21041;-49
2021/10/03 00:43:42;;;;;;;2.85;2.05;;;;;;;19.23;45.95;102509.67;1688899;83;21053;-50
2021/10/03 00:46:09;;;;;;;5.70;3.00;;;;;;;19.21;45.46;102502.26;1712347;83;21064;-50
2021/10/03 00:48:36;;;;;;;5.97;2.02;;;;;;;19.19;45.19;102500.12;1709866;83;21017;-48
2021/10/03 00:51:03;;;;;;;8.68;2.42;;;;;;;19.17;45.08;102503.70;1717791;83;21033;-50
2021/10/03 00:53:30;;;;;;;5.78;2.05;;;;;;;19.16;45.18;102504.19;1737457;82;21047;-47
2021/10/03 00:55:57;;;;;;;4.20;2.42;;;;;;;19.13;45.62;102505.58;1737295;82;21021;-48
2021/10/03 00:58:24;;;;;;;5.12;2.75;;;;;;;19.11;46.16;102503.45;1722263;83;21521;-50
2021/10/03 01:00:50;;;;;;;3.02;2.65;;;;;;;19.10;46.66;102503.50;1734174;83;21052;-51
2021/10/03 01:03:19;;;;;;;6.45;3.02;;;;;;;19.11;46.93;102502.57;1722084;83;21057;-50
2021/10/03 01:05:46;;;;;;;3.60;2.20;;;;;;;19.10;46.87;102505.66;1737422;82;21532;-47
2021/10/03 01:08:13;;;;;;;4.22;2.60;;;;;;;19.12;46.72;102502.55;1737432;82;21048;-49
2021/10/03 01:10:40;;;;;;;5.00;2.92;;;;;;;19.12;46.42;102499.91;1721844;83;20994;-50
2021/10/03 01:13:11;;;;;;;5.33;2.42;;;;;;;19.13;46.30;102504.27;1737199;83;21001;-49
2021/10/03 01:15:43;;;;;;;4.67;2.72;;;;;;;19.14;46.40;102505.13;1722238;83;20989;-47
2021/10/03 01:18:10;;;;;;;6.45;2.92;;;;;;;19.14;46.48;102507.33;1737431;81;21464;-47
2021/10/03 01:20:37;;;;;;;8.48;3.30;;;;;;;19.14;46.25;102507.33;1737129;83;21064;-48
2021/10/03 01:23:05;;;;;;;10.98;4.87;;;;;;;19.14;46.60;102503.37;1737173;82;21013;-49
2021/10/03 01:25:36;;;;;;;11.10;3.77;;;;;;;19.12;46.92;102505.19;1721787;83;21002;-49
2021/10/03 01:28:04;;;;;;;6.85;3.95;;;;;;;19.12;46.96;102506.95;1737476;81;20957;-49
2021/10/03 01:30:31;;;;;;;11.03;4.33;;;;;;;19.11;46.93;102507.84;1737448;82;21028;-47
2021/10/03 01:32:58;;;;;;;5.78;3.55;;;;;;;19.07;46.97;102515.00;1737631;82;21100;-48
2021/10/03 01:35:25;;;;;;;8.33;4.75;;;;;;;19.05;47.09;102514.63;1734887;82;21097;-49
2021/10/03 01:37:52;;;;;;;6.45;4.05;;;;;;;19.01;47.10;102515.18;1767210;80;21053;-46
2021/10/03 01:40:19;;;;;;;6.53;4.92;;;;;;;18.99;47.49;102513.04;1766165;80;21053;-49
2021/10/03 01:42:46;;;;;;;6.65;4.90;;;;;;;18.95;48.03;102511.84;1766497;80;21001;-49
2021/10/03 01:45:15;;;;;;;10.65;4.80;;;;;;;18.90;47.98;102515.92;1768672;80;21068;-48
2021/10/03 01:48:19;;;;;;;9.28;4.28;;;;;;;18.85;47.76;102511.25;1770036;80;20994;-50
2021/10/03 01:50:52;;;;;;;8.13;5.22;;;;;;;18.80;47.56;102505.23;1762631;80;20954;-46
2021/10/03 01:53:25;;;;;;;8.38;4.83;;;;;;;18.75;47.29;102511.55;1762820;80;21037;-49
2021/10/03 01:55:52;;;;;;;6.12;4.50;;;;;;;18.71;47.27;102502.87;1762746;80;21001;-49
2021/10/03 01:58:21;;;;;;;6.45;4.33;;;;;;;18.66;47.23;102506.07;1769335;80;21482;-47
2021/10/03 02:00:51;;;;;;;5.33;4.67;;;;;;;18.61;47.20;102510.14;1769787;80;20989;-49
2021/10/03 02:03:17;;;;;;;6.62;4.75;;;;;;;18.57;47.29;102506.30;1769496;80;21019;-50
2021/10/03 02:05:45;;;;;;;7.80;4.50;;;;;;;18.53;47.35;102500.70;1769211;80;21053;-49
2021/10/03 02:08:13;;;;;;;7.75;4.58;;;;;;;18.48;47.42;102510.08;1768114;80;21065;-49
2021/10/03 02:10:43;;;;;;;6.05;4.60;;;;;;;18.45;47.48;102504.00;1766240;80;21037;-47
2021/10/03 02:13:10;;;;;;;6.58;4.10;;;;;;;18.44;47.42;102507.56;1766372;80;20974;-49
2021/10/03 02:15:40;;;;;;;7.50;4.62;;;;;;;18.43;47.31;102503.15;1769485;80;21478;-49
2021/10/03 02:18:11;;;;;;;9.35;5.00;;;;;;;18.41;47.31;102499.24;1767719;80;21065;-49
2021/10/03 02:20:37;;;;;;;6.05;4.58;;;;;;;18.40;47.41;102497.98;1770155;80;21049;-49
2021/10/03 02:23:05;;;;;;;5.67;4.83;;;;;;;18.38;47.30;102503.74;1771933;80;21022;-49
2021/10/03 02:25:32;;;;;;;10.08;5.67;;;;;;;18.32;47.38;102503.91;1763923;80;21054;-50
2021/10/03 02:28:00;;;;;;;8.80;4.95;;;;;;;18.28;47.61;102499.62;1782269;80;21038;-50
2021/10/03 02:30:27;;;;;;;5.90;4.33;;;;;;;18.25;47.86;102499.23;1768463;80;21021;-49
2021/10/03 02:32:53;;;;;;;7.50;5.10;;;;;;;18.24;48.14;102497.94;1767568;80;20997;-50
2021/10/03 02:35:20;;;;;;;8.08;4.55;;;;;;;18.19;47.93;102499.40;1766078;80;21577;-49
2021/10/03 02:37:46;;;;;;;6.85;5.05;;;;;;;18.19;47.85;102503.80;1765856;80;21052;-51
2021/10/03 02:40:15;;;;;;;8.70;4.92;;;;;;;18.19;48.06;102510.38;1768384;80;21477;-49
2021/10/03 02:42:43;;;;;;;7.15;4.47;;;;;;;18.20;48.22;102508.14;1769549;80;20997;-49
2021/10/03 02:45:10;;;;;;;5.45;2.77;;;;;;;18.23;48.31;102508.08;1769021;80;21497;-49
2021/10/03 02:47:37;;;;;;;4.78;2.65;;;;;;;18.27;48.19;102497.87;1769293;80;21010;-47
2021/10/03 02:50:05;;;;;;;6.95;2.70;;;;;;;18.32;48.14;102503.91;1769855;80;21494;-49
2021/10/03 02:52:32;;;;;;;3.85;2.47;;;;;;;18.37;48.32;102500.23;1767244;80;21045;-50
2021/10/03 02:54:58;;;;;;;3.80;2.42;;;;;;;18.42;48.38;102493.53;1766309;80;20994;-49
2021/10/03 02:57:25;;;;;;;5.90;2.77;;;;;;;18.47;47.98;102496.92;1766706;80;21069;-46
2021/10/03 02:59:51;;;;;;;2.95;2.20;;;;;;;18.50;47.45;102487.63;1768767;80;21557;-48
2021/10/03 03:02:19;;;;;;;5.15;2.58;;;;;;;18.54;47.21;102494.55;1776708;80;20997;-49
2021/10/03 03:04:46;;;;;;;2.60;2.33;;;;;;;18.57;46.88;102495.31;1766848;80;21097;-47
2021/10/03 03:07:12;;;;;;;3.20;2.70;;;;;;;18.61;46.73;102500.05;1765846;80;20997;-49
2021/10/03 03:09:40;;;;;;;5.90;3.15;;;;;;;18.62;46.96;102494.75;1767258;80;21005;-49
2021/10/03 03:12:07;;;;;;;7.30;3.55;;;;;;;18.64;47.35;102492.06;1769669;80;20973;-51
2021/10/03 03:14:34;;;;;;;6.10;4.15;;;;;;;18.66;47.43;102495.52;1768934;80;20942;-49
2021/10/03 03:17:14;;;;;;;6.55;4.10;;;;;;;18.67;47.16;102498.55;1769783;80;21026;-47
2021/10/03 03:19:41;;;;;;;12.93;4.40;;;;;;;18.69;47.07;102508.64;1768174;80;21045;-49
2021/10/03 03:22:09;;;;;;;9.60;4.62;;;;;;;18.68;46.97;102497.22;1768847;80;20986;-50
2021/10/03 03:24:36;;;;;;;6.08;3.62;;;;;;;18.71;46.68;102494.08;1772788;80;21018;-49
2021/10/03 03:27:04;;;;;;;5.87;4.10;;;;;;;18.73;46.56;102503.69;1770619;80;20994;-50
2021/10/03 03:29:32;;;;;;;7.05;4.03;;;;;;;18.74;46.71;102488.27;1769322;80;20974;-46
2021/10/03 03:32:00;;;;;;;5.30;3.90;;;;;;;18.73;46.59;102485.23;1769113;80;20979;-49
2021/10/03 03:34:27;;;;;;;7.08;3.90;;;;;;;18.74;46.63;102485.62;1768117;80;21018;-49
2021/10/03 03:36:55;;;;;;;9.68;4.37;;;;;;;18.74;46.63;102489.58;1767395;80;21045;-49
2021/10/03 03:39:21;;;;;;;5.62;3.87;;;;;;;18.73;46.68;102485.23;1765924;80;20997;-46
2021/10/03 03:41:48;;;;;;;9.18;4.08;;;;;;;18.71;46.75;102483.53;1765872;80;21531;-49
2021/10/03 03:44:14;;;;;;;6.72;3.90;;;;;;;18.70;46.95;102490.58;1773408;80;20994;-50
2021/10/03 03:46:41;;;;;;;6.58;3.87;;;;;;;18.69;47.19;102488.86;1762149;80;21038;-51
2021/10/03 03:49:08;;;;;;;5.87;3.85;;;;;;;18.70;47.48;102493.21;1769541;80;20983;-49
2021/10/03 03:51:36;;;;;;;6.80;4.00;;;;;;;18.71;47.66;102494.08;1767151;80;21022;-49
2021/10/03 03:54:02;;;;;;;8.55;4.25;;;;;;;18.72;47.76;102501.95;1770544;80;21029;-47
2021/10/03 03:56:29;;;;;;;8.10;4.05;;;;;;;18.73;47.70;102500.18;1765936;80;20958;-49
2021/10/03 03:58:56;;;;;;;9.48;4.25;;;;;;;18.73;47.41;102501.05;1765921;80;21016;-47
2021/10/03 04:01:23;;;;;;;6.05;3.77;;;;;;;18.72;47.39;102496.67;1762341;80;21466;-49
2021/10/03 04:03:49;;;;;;;4.92;4.15;;;;;;;18.73;47.39;102493.14;1769545;80;20974;-49
2021/10/03 04:06:16;;;;;;;5.83;4.30;;;;;;;18.72;47.51;102496.67;1768741;80;21003;-46
2021/10/03 04:08:43;;;;;;;7.10;4.10;;;;;;;18.70;47.59;102495.84;1768716;80;21518;-50
2021/10/03 04:11:11;;;;;;;8.13;4.25;;;;;;;18.69;47.50;102502.05;1768913;80;20990;-49
2021/10/03 04:13:38;;;;;;;6.00;4.30;;;;;;;18.68;47.57;102498.54;1765931;80;21002;-49
2021/10/03 04:16:05;;;;;;;8.13;3.90;;;;;;;18.67;47.52;102499.43;1766038;80;21506;-47
2021/10/03 04:18:31;;;;;;;7.58;3.95;;;;;;;18.66;47.63;102508.27;1767825;80;21014;-47
2021/10/03 04:20:59;;;;;;;9.55;3.77;;;;;;;18.62;47.83;102505.75;1769377;80;21521;-49
2021/10/03 04:23:25;;;;;;;12.50;3.85;;;;;;;18.66;47.76;102508.27;1769619;80;21026;-49
2021/10/03 04:25:52;;;;;;;6.95;4.50;;;;;;;18.69;47.79;102507.31;1768470;80;20981;-51
2021/10/03 04:28:19;;;;;;;6.62;4.03;;;;;;;18.68;47.67;102505.58;1769535;80;20989;-49
2021/10/03 04:30:45;;;;;;;5.00;3.60;;;;;;;18.69;47.61;102506.00;1768546;80;21415;-46
2021/10/03 04:33:11;;;;;;;5.70;3.67;;;;;;;18.69;47.78;102515.23;1767629;80;21045;-48
2021/10/03 04:35:39;;;;;;;8.35;3.83;;;;;;;18.69;47.95;102513.44;1765616;80;21057;-46
2021/10/03 04:38:06;;;;;;;7.90;4.30;;;;;;;18.68;47.97;102517.44;1769431;80;21026;-49
2021/10/03 04:40:33;;;;;;;4.95;3.98;;;;;;;18.67;48.15;102520.52;1768793;80;20996;-50
2021/10/03 04:42:59;;;;;;;7.75;4.22;;;;;;;18.69;48.30;102515.23;1765975;80;21006;-49
2021/10/03 04:45:26;;;;;;;6.20;4.12;;;;;;;18.70;48.09;102519.58;1766080;80;21497;-49
2021/10/03 04:47:53;;;;;;;12.45;3.58;;;;;;;18.70;47.96;102522.22;1762365;80;21501;-49
2021/10/03 04:50:20;;;;;;;6.47;4.22;;;;;;;18.69;48.05;102520.50;1768916;80;21056;-48
2021/10/03 04:52:47;;;;;;;10.15;4.10;;;;;;;18.71;48.22;102521.33;1774576;80;21018;-50
2021/10/03 04:55:14;;;;;;;8.80;4.20;;;;;;;18.75;48.28;102522.97;1765652;80;20998;-49
2021/10/03 04:57:41;;;;;;;6.87;3.98;;;;;;;18.76;48.20;102529.08;1766077;80;21002;-48
2021/10/03 05:00:09;;;;;;;5.70;4.20;;;;;;;18.77;48.05;102533.02;1775376;80;21025;-50
2021/10/03 05:02:36;;;;;;;6.50;3.67;;;;;;;18.78;47.97;102530.78;1767241;80;20958;-46
2021/10/03 05:05:04;;;;;;;6.60;3.65;;;;;;;18.78;47.99;102533.42;1768737;80;21007;-48
2021/10/03 05:07:30;;;;;;;6.92;3.67;;;;;;;18.77;48.03;102529.06;1765791;80;20964;-50
2021/10/03 05:09:58;;;;;;;5.05;3.50;;;;;;;18.78;47.92;102531.23;1766025;80;20962;-47
2021/10/03 05:12:24;;;;;;;6.87;3.80;;;;;;;18.77;47.94;102531.70;1768417;80;21002;-49
2021/10/03 05:14:52;;;;;;;9.30;3.62;;;;;;;18.77;48.07;102534.34;1768576;80;21002;-50
2021/10/03 05:17:19;;;;;;;7.83;3.85;;;;;;;18.77;48.04;102540.94;1769287;80;21065;-49
2021/10/03 05:19:46;;;;;;;3.80;3.40;;;;;;;18.78;48.16;102538.69;1768586;80;21444;-46
2021/10/03 05:22:14;;;;;;;5.28;3.62;;;;;;;18.80;48.17;102543.47;1768829;80;21014;-49
2021/10/03 05:24:40;;;;;;;8.93;3.47;;;;;;;18.84;48.29;102541.16;1766194;80;21021;-47
2021/10/03 05:27:08;;;;;;;6.10;3.70;;;;;;;18.85;48.30;102544.22;1765702;80;20982;-50
2021/10/03 05:29:35;;;;;;;6.45;3.72;;;;;;;18.87;48.48;102549.00;1767263;80;21033;-48
2021/10/03 05:32:03;;;;;;;4.58;3.58;;;;;;;18.89;48.60;102552.46;1767915;80;21021;-48
2021/10/03 05:34:30;;;;;;;4.30;2.87;;;;;;;18.90;48.66;102548.90;1773553;80;21017;-49
2021/10/03 05:36:57;;;;;;;6.97;4.05;;;;;;;18.92;48.70;102557.64;1771266;80;21889;-48
2021/10/03 05:39:24;;;;;;;7.42;3.80;;;;;;;18.95;48.72;102552.29;1784385;80;21014;-49
2021/10/03 05:41:51;;;;;;;7.50;3.50;;;;;;;18.99;48.78;102555.25;1771817;80;21482;-47
2021/10/03 05:44:17;;;;;;;6.28;2.92;;;;;;;19.04;48.99;102557.28;1770802;80;20993;-48
2021/10/03 05:46:44;;;;;;;5.58;3.45;;;;;;;19.09;49.12;102560.67;1775901;80;21018;-50
2021/10/03 05:49:10;;;;;;;7.65;3.42;;;;;;;19.16;49.13;102561.38;1772044;80;21009;-49
2021/10/03 05:51:37;;;;;;;6.80;3.05;;;;;;;19.22;49.13;102571.75;1776299;80;21049;-47
2021/10/03 05:54:04;;;;;;;8.43;3.30;;;;;;;19.28;48.92;102569.80;1775011;80;21465;-49
2021/10/03 05:56:34;;;;;;;4.47;2.98;;;;;;;19.31;48.87;102572.33;1773752;80;21025;-50
2021/10/03 05:59:01;;;;;;;5.65;3.55;;;;;;;19.33;48.90;102579.79;1774344;80;21036;-50
2021/10/03 06:01:28;;;;;;;4.75;3.30;;;;;;;19.36;48.66;102579.71;1772310;80;20994;-49
2021/10/03 06:03:56;;;;;;;8.73;3.75;;;;;;;19.36;48.61;102580.16;1771085;80;21536;-49
2021/10/03 06:06:22;;;;;;;6.50;3.52;;;;;;;19.36;48.75;102582.35;1772018;80;21022;-49
2021/10/03 06:08:49;;;;;;;8.93;3.67;;;;;;;19.39;49.01;102583.56;1773985;80;20986;-50
2021/10/03 06:11:16;;;;;;;6.05;3.30;;;;;;;19.42;49.02;102583.48;1779232;80;21469;-50
2021/10/03 06:13:43;;;;;;;6.95;3.50;;;;;;;19.45;49.11;102588.66;1771919;80;21719;-50
2021/10/03 06:16:09;;;;;;;7.50;3.80;;;;;;;19.44;49.16;102590.91;1785104;80;20974;-50
2021/10/03 06:18:36;;;;;;;8.63;3.75;;;;;;;19.42;49.39;102587.45;1774337;80;21057;-50
2021/10/03 06:21:09;;;;;;;8.80;3.40;;;;;;;19.35;49.71;102589.00;1772733;80;21577;-50
2021/10/03 06:23:33;;;;;;;8.65;3.95;;;;;;;19.47;49.36;102593.92;1769159;80;21040;-50
2021/10/03 06:25:59;;;;;;;6.22;3.77;;;;;;;19.47;49.16;102593.44;1774212;80;21021;-49
2021/10/03 06:28:26;;;;;;;8.63;4.00;;;;;;;19.46;49.13;102587.77;1779545;80;21047;-50
2021/10/03 06:30:52;;;;;;;6.87;3.92;;;;;;;19.48;49.19;102596.51;1772099;80;20954;-50
2021/10/03 06:33:19;;;;;;;7.37;4.65;;;;;;;19.47;49.19;102594.77;1771160;80;20985;-49
2021/10/03 06:35:46;;;;;;;5.90;3.70;;;;;;;19.45;49.08;102593.94;1772230;80;21061;-47
2021/10/03 06:38:13;;;;;;;6.55;4.08;;;;;;;19.42;49.20;102594.05;1774673;80;21010;-50
2021/10/03 06:40:40;;;;;;;7.22;3.45;;;;;;;19.40;49.40;102591.91;1781899;80;21494;-47
2021/10/03 06:43:06;;;;;;;9.08;3.77;;;;;;;19.41;49.44;102597.58;1774078;80;20986;-47
2021/10/03 06:45:34;;;;;;;8.63;4.15;;;;;;;19.45;49.47;102601.02;1776950;80;21027;-50
2021/10/03 06:48:00;;;;;;;5.67;3.17;;;;;;;19.52;49.49;102603.00;1776192;80;21481;-47
2021/10/03 06:50:27;;;;;;;7.40;4.35;;;;;;;19.54;49.35;102602.53;1776850;80;20990;-49
2021/10/03 06:52:53;;;;;;;7.20;4.22;;;;;;;19.56;49.14;102608.63;1774349;80;21509;-50
2021/10/03 06:55:21;;;;;;;5.45;3.30;;;;;;;19.56;49.07;102605.52;1771690;80;21045;-50
2021/10/03 06:57:48;;;;;;;7.78;4.30;;;;;;;19.56;49.16;102603.35;1770958;80;21033;-49
2021/10/03 07:00:14;;;;;;;9.45;4.42;;;;;;;19.58;49.22;102610.29;1772568;80;21016;-49
2021/10/03 07:02:41;;;;;;;6.12;4.03;;;;;;;19.59;49.22;102604.56;1773551;80;21010;-47
2021/10/03 07:05:08;;;;;;;7.33;3.80;;;;;;;19.62;49.11;102605.81;1713044;80;21002;-47
2021/10/03 07:07:35;;;;;;;10.00;3.98;;;;;;;19.63;49.03;102608.84;1777083;80;21005;-48
2021/10/03 07:10:03;;;;;;;6.22;3.80;;;;;;;19.65;49.04;102614.50;1768623;80;21521;-50
2021/10/03 07:12:30;;;;;;;6.17;3.42;;;;;;;19.66;48.88;102612.73;1772825;80;21493;-53
2021/10/03 07:14:57;;;;;;;6.35;3.52;;;;;;;19.66;48.76;102619.33;1774428;80;21013;-51
2021/10/03 07:17:23;;;;;;;5.47;3.22;;;;;;;19.65;48.81;102614.94;1774662;80;21016;-49
2021/10/03 07:19:50;;;;;;;3.85;3.35;;;;;;;19.65;48.83;102614.50;1774317;80;21026;-50
2021/10/03 07:22:16;;;;;;;9.83;3.83;;;;;;;19.67;48.68;102617.08;1774751;80;20969;-49
2021/10/03 07:24:43;;;;;;;6.33;3.62;;;;;;;19.69;48.83;102614.81;1772473;80;21076;-49
2021/10/03 07:27:09;;;;;;;8.18;3.70;;;;;;;19.73;48.81;102614.25;1771232;80;21010;-50
2021/10/03 07:29:36;;;;;;;5.78;3.98;;;;;;;19.75;48.81;102615.07;1772061;80;21053;-48
2021/10/03 07:32:06;;;;;;;11.50;3.98;;;;;;;19.79;48.65;102611.42;1774236;80;21054;-49
2021/10/03 07:34:35;;;;;;;;;;;;;;;19.80;48.70;102616.69;1784210;80;21013;-50
2021/10/03 07:37:03;;;;;;;7.12;4.45;;;;;;;19.80;48.74;102615.81;1774214;80;20439;-47
2021/10/03 07:39:34;;;;;;;8.28;3.72;;;;;;;19.82;48.88;102620.59;1778411;80;21057;-52
2021/10/03 07:42:02;;;;;;;6.83;3.72;;;;;;;19.85;48.78;102621.80;1774746;80;21529;-47
2021/10/03 07:44:29;;;;;;;6.95;4.03;;;;;;;19.88;48.69;102627.88;1780613;80;21497;-47
2021/10/03 07:46:56;;;;;;;7.92;3.67;;;;;;;19.91;48.62;102629.53;1771576;80;21005;-47
2021/10/03 07:49:22;;;;;;;5.05;3.37;;;;;;;19.90;48.50;102626.50;1767569;80;21001;-48
2021/10/03 07:51:49;;;;;;;9.45;3.77;;;;;;;19.88;48.56;102627.88;1774374;80;21037;-50
2021/10/03 07:54:16;;;;;;;5.53;4.60;;;;;;;19.87;48.78;102633.19;1774628;80;20988;-53
2021/10/03 07:56:43;;;;;;;6.67;3.98;;;;;;;19.90;49.00;102625.18;1774422;80;21510;-50
2021/10/03 07:59:09;;;;;;;6.65;3.85;;;;;;;19.95;49.17;102631.17;1773816;80;21002;-49
2021/10/03 08:01:36;;;;;;;7.72;3.77;;;;;;;20.00;49.26;102631.91;1771108;80;21005;-47
2021/10/03 08:04:04;;;;;;;8.40;4.33;;;;;;;20.05;49.24;102630.00;1771256;80;21018;-48
2021/10/03 08:06:32;;;;;;;8.83;4.17;;;;;;;20.09;49.05;102631.62;1773304;80;21084;-49
2021/10/03 08:08:58;;;;;;;6.45;4.05;;;;;;;20.11;48.91;102636.41;1774210;80;20991;-47
2021/10/03 08:11:25;;;;;;;9.70;4.20;;;;;;;20.08;48.86;102638.69;1771764;80;21021;-47
2021/10/03 08:13:52;;;;;;;6.75;3.50;;;;;;;20.05;48.89;102640.09;1760378;80;21061;-48
2021/10/03 08:16:20;;;;;;;5.97;3.98;;;;;;;20.06;49.13;102644.48;1779284;80;21016;-49
2021/10/03 08:18:48;;;;;;;8.23;4.37;;;;;;;20.09;49.31;102639.56;1772195;80;21592;-50
2021/10/03 08:21:15;;;;;;;8.03;4.67;;;;;;;20.15;49.15;102648.61;1771366;80;21076;-50
2021/10/03 08:23:42;;;;;;;7.30;4.62;;;;;;;20.16;48.88;102638.44;1772402;80;21028;-48
2021/10/03 08:26:08;;;;;;;20.72;4.58;;;;;;;20.17;48.88;102637.53;1774703;80;21497;-49
2021/10/03 08:28:35;;;;;;;10.78;4.30;;;;;;;20.16;48.93;102629.18;1774486;80;20973;-47
2021/10/03 08:31:01;;;;;;;8.40;4.10;;;;;;;20.20;48.92;102642.73;1774734;80;20969;-47
2021/10/03 08:33:28;;;;;;;11.90;4.40;;;;;;;20.20;48.81;102633.48;1774551;80;21494;-49
2021/10/03 08:35:55;;;;;;;6.15;4.70;;;;;;;20.23;48.89;102637.38;1772205;80;21038;-47
2021/10/03 08:38:22;;;;;;;4.83;4.12;;;;;;;20.28;48.61;102644.68;1768677;80;21065;-48
2021/10/03 08:40:50;;;;;;;6.95;3.83;;;;;;;20.30;48.37;102641.53;1767867;80;21038;-47
2021/10/03 08:43:18;;;;;;;4.97;3.72;;;;;;;20.31;48.44;102643.72;1779715;80;21470;-47
2021/10/03 08:45:45;;;;;;;14.05;4.65;;;;;;;20.32;48.13;102641.02;1767424;80;21009;-53
2021/10/03 08:48:14;;;;;;;6.42;4.62;;;;;;;20.35;48.13;102639.61;1768308;80;21014;-49
2021/10/03 08:50:44;;;;;;;6.85;4.05;;;;;;;20.41;47.96;102642.06;1774136;80;21008;-51
2021/10/03 08:53:11;;;;;;;6.50;4.03;;;;;;;20.43;47.74;102640.23;1768837;80;21010;-50
2021/10/03 08:55:40;;;;;;;7.08;4.65;;;;;;;20.47;47.44;102637.89;1765632;80;21006;-47
2021/10/03 08:58:07;;;;;;;5.08;3.22;;;;;;;20.49;47.48;102637.38;1765955;80;21020;-49
2021/10/03 09:00:39;;;;;;;8.15;4.00;;;;;;;20.51;47.46;102639.52;1768616;80;21013;-50
2021/10/03 09:03:08;;;;;;;20.05;5.00;;;;;;;20.55;47.41;102635.84;1691383;83;21095;-47
2021/10/03 09:05:39;;;;;;;7.03;4.28;;;;;;;20.58;46.80;102642.38;1687949;85;21048;-50
2021/10/03 09:08:18;;;;;;;6.62;3.92;;;;;;;20.58;46.65;102638.41;1688356;85;21052;-48
2021/10/03 09:11:00;;;;;;;7.95;3.60;;;;;;;20.59;46.61;102630.86;1673439;86;21037;-47
2021/10/03 09:13:39;;;;;;;8.48;3.80;;;;;;;20.61;46.57;102634.31;1685070;85;21015;-49
2021/10/03 09:16:12;;;;;;;6.75;3.80;;;;;;;20.62;46.36;102629.45;1677509;85;21035;-49
2021/10/03 09:18:46;;;;;;;7.83;3.92;;;;;;;20.62;46.28;102624.16;1671156;85;21084;-48
2021/10/03 09:21:33;;;;;;;6.53;2.85;;;;;;;20.66;46.33;102623.14;1680427;85;21039;-50
2021/10/03 09:24:16;;;;;;;5.80;3.85;;;;;;;20.70;46.00;102633.15;1632152;87;21633;-50
2021/10/03 09:27:00;;;;;;;5.95;3.70;;;;;;;20.73;45.78;102623.80;1609218;88;21041;-50
2021/10/03 09:29:33;;;;;;;6.72;3.30;;;;;;;20.74;45.89;102622.41;1574444;90;21152;-48
2021/10/03 09:32:15;;;;;;;7.45;3.60;;;;;;;20.77;45.76;102631.55;1575273;90;21538;-47
2021/10/03 09:37:28;;;;;;;11.10;4.00;;;;;;;20.78;45.39;102629.33;1508416;94;21106;-49
2021/10/03 09:40:07;;;;;;;6.47;3.50;;;;;;;20.76;45.12;102632.94;1512577;93;21621;-48
2021/10/03 09:42:34;;;;;;;6.60;3.70;;;;;;;20.76;44.85;102625.88;1491931;93;21094;-49
2021/10/03 09:45:12;;;;;;;3.35;2.90;;;;;;;20.76;44.54;102623.23;1525598;93;21131;-52
2021/10/03 09:47:41;;;;;;;5.55;3.27;;;;;;;20.78;44.47;102626.69;1526151;93;21097;-52
2021/10/03 09:50:10;;;;;;;5.47;3.00;;;;;;;20.81;44.05;102624.39;1526157;93;21121;-48
2021/10/03 09:52:38;;;;;;;10.10;3.08;;;;;;;20.81;44.20;102621.27;1524853;93;21034;-47
2021/10/03 09:55:09;;;;;;;5.12;3.35;;;;;;;20.84;44.07;102621.62;1523968;93;21090;-49
2021/10/03 09:57:38;;;;;;;6.73;3.90;;;;;;;20.85;44.00;102620.27;1523792;93;21050;-50
2021/10/03 10:00:07;;;;;;;7.40;3.42;;;;;;;20.87;43.68;102621.08;1524079;93;21689;-49
2021/10/03 10:02:34;;;;;;;8.28;4.37;;;;;;;20.89;43.12;102624.54;1523558;93;21114;-49
2021/10/03 10:05:01;;;;;;;4.97;3.25;;;;;;;20.89;43.31;102619.25;1524409;93;21602;-47
2021/10/03 10:07:33;;;;;;;5.78;3.55;;;;;;;20.91;43.45;102616.09;1523677;93;21516;-47
2021/10/03 10:09:59;;;;;;;5.42;2.90;;;;;;;20.93;43.38;102610.73;1491367;94;21159;-47
2021/10/03 10:12:26;;;;;;;4.40;3.25;;;;;;;20.92;43.06;102615.16;1489895;94;21578;-47
2021/10/03 10:15:05;;;;;;;7.33;4.17;;;;;;;20.92;43.05;102609.86;1491077;96;21158;-50
2021/10/03 10:17:42;;;;;;;7.28;3.40;;;;;;;20.92;43.05;102613.83;1489234;94;21113;-49
2021/10/03 10:20:27;;;;;;;7.92;3.50;;;;;;;20.91;43.11;102619.19;1489827;94;21557;-50
2021/10/03 10:23:02;;;;;;;5.67;3.05;;;;;;;20.92;43.06;102611.18;1512057;91;21661;-49
2021/10/03 10:25:54;;;;;;;6.05;3.08;;;;;;;20.91;42.87;102613.44;1577766;90;21141;-49
2021/10/03 10:28:34;;;;;;;15.03;3.02;;;;;;;20.93;42.77;102615.57;1570851;90;21056;-49
2021/10/03 10:31:09;;;;;;;3.95;3.08;;;;;;;20.96;42.58;102611.92;1572167;90;21060;-49
2021/10/03 10:34:01;;;;;;;7.08;3.05;;;;;;;20.99;42.48;102607.41;1595681;87;21012;-47
2021/10/03 10:36:37;;;;;;;6.78;2.52;;;;;;;21.02;42.11;102607.77;1639163;86;21639;-47
2021/10/03 10:39:14;;;;;;;4.95;2.65;;;;;;;21.06;42.01;102612.91;1600661;88;21101;-49
2021/10/03 10:41:58;;;;;;;8.43;2.80;;;;;;;21.10;41.42;102599.13;1600553;89;21605;-50
2021/10/03 10:44:33;;;;;;;3.12;2.10;;;;;;;21.08;41.22;102593.47;1594262;88;21105;-47
2021/10/03 10:47:09;;;;;;;3.65;2.17;;;;;;;21.06;41.08;102590.89;1570099;90;21575;-47
2021/10/03 10:49:43;;;;;;;2.80;1.98;;;;;;;21.05;40.69;102585.18;1539321;93;21038;-48
2021/10/03 10:52:25;;;;;;;3.55;2.45;;;;;;;21.00;41.08;102582.66;1491534;96;21093;-49
2021/10/03 10:55:21;;;;;;;4.20;2.67;;;;;;;20.98;41.19;102583.17;1513090;94;21163;-48
2021/10/03 10:57:57;;;;;;;7.53;2.90;;;;;;;21.01;41.22;102583.53;1489466;96;21092;-49
2021/10/03 11:00:24;;;;;;;3.45;2.52;;;;;;;21.05;41.40;102581.20;1513226;94;21100;-49
2021/10/03 11:03:00;;;;;;;7.03;2.92;;;;;;;21.06;40.47;102582.47;1489719;96;21128;-50
2021/10/03 11:05:43;;;;;;;3.72;2.87;;;;;;;21.05;40.19;102585.18;1513241;94;21588;-52
2021/10/03 11:08:16;;;;;;;6.08;3.12;;;;;;;21.07;40.28;102580.69;1529443;93;21584;-46
2021/10/03 11:11:09;;;;;;;5.80;3.25;;;;;;;21.11;40.52;102582.30;1533208;93;21072;-46
2021/10/03 11:13:51;;;;;;;6.50;4.10;;;;;;;21.15;40.51;102584.38;1533151;93;21156;-49
2021/10/03 11:16:33;;;;;;;8.45;3.58;;;;;;;21.16;39.90;102587.44;1542757;90;21113;-48
2021/10/03 11:19:06;;;;;;;4.92;3.15;;;;;;;21.16;40.08;102588.31;1569674;90;21597;-47
2021/10/03 11:21:49;;;;;;;5.15;3.08;;;;;;;21.15;39.91;102585.24;1539182;92;21106;-49
2021/10/03 11:24:24;;;;;;;4.40;2.75;;;;;;;21.14;40.54;102583.98;1447418;99;21130;-46
2021/10/03 11:26:56;;;;;;;3.95;3.00;;;;;;;21.16;40.30;102578.17;1446868;99;21142;-46
2021/10/03 11:29:25;;;;;;;4.37;3.25;;;;;;;21.18;40.39;102575.01;1454438;97;21624;-49
2021/10/03 11:31:55;;;;;;;4.22;3.00;;;;;;;21.20;40.64;102579.78;1480996;97;21635;-49
2021/10/03 11:34:40;;;;;;;4.45;3.22;;;;;;;21.22;40.63;102573.97;1477133;97;21650;-49
2021/10/03 11:37:12;;;;;;;6.05;3.50;;;;;;;21.25;40.87;102575.16;1477826;96;21159;-48